createdAt,value
2023-05-19T00:01:31.278Z,11.65
2023-05-19T00:03:40.633Z,11.74
2023-05-19T00:05:46.758Z,11.74
2023-05-19T00:07:55.614Z,11.82
2023-05-19T00:10:01.319Z,11.77
2023-05-19T00:12:06.734Z,11.73
2023-05-19T00:14:13.303Z,11.76
2023-05-19T00:16:18.705Z,11.74
2023-05-19T00:18:23.761Z,11.66
2023-05-19T00:20:31.556Z,11.63
2023-05-19T00:22:37.140Z,11.66
2023-05-19T00:24:42.172Z,11.70
2023-05-19T00:26:47.063Z,11.68
2023-05-19T00:28:52.358Z,11.73
2023-05-19T00:30:57.641Z,11.72
2023-05-19T00:33:04.748Z,11.80
2023-05-19T00:35:11.031Z,11.77
2023-05-19T00:37:19.037Z,11.90
2023-05-19T00:39:24.060Z,12.03
2023-05-19T00:41:29.153Z,12.13
2023-05-19T00:43:34.512Z,12.14
2023-05-19T00:45:39.816Z,12.21
2023-05-19T00:47:44.480Z,12.18
2023-05-19T00:49:49.662Z,12.21
2023-05-19T00:51:54.847Z,12.20
2023-05-19T00:54:02.354Z,12.18
2023-05-19T00:56:07.859Z,12.18
2023-05-19T00:58:14.640Z,12.16
2023-05-19T01:00:19.932Z,12.19
2023-05-19T01:02:25.222Z,12.20
2023-05-19T01:04:30.030Z,12.16
2023-05-19T01:06:35.497Z,12.19
2023-05-19T01:08:41.470Z,12.21
2023-05-19T01:10:49.183Z,12.14
2023-05-19T01:12:54.226Z,12.06
2023-05-19T01:14:59.495Z,12.07
2023-05-19T01:17:10.672Z,12.13
2023-05-19T01:19:35.539Z,12.17
2023-05-19T01:22:13.381Z,12.22
2023-05-19T01:24:48.263Z,12.12
2023-05-19T01:27:18.888Z,11.99
2023-05-19T01:29:44.060Z,12.02
2023-05-19T01:31:52.376Z,12.08
2023-05-19T01:33:57.849Z,12.06
2023-05-19T01:36:05.712Z,12.01
2023-05-19T01:38:12.377Z,11.99
2023-05-19T01:40:19.388Z,12.04
2023-05-19T01:42:25.419Z,11.94
2023-05-19T01:44:31.726Z,11.92
2023-05-19T01:46:37.148Z,12.00
2023-05-19T01:48:45.223Z,11.83
2023-05-19T01:50:52.066Z,11.94
2023-05-19T01:52:57.592Z,11.98
2023-05-19T01:55:02.784Z,12.04
2023-05-19T01:57:16.145Z,12.07
2023-05-19T01:59:31.391Z,12.17
2023-05-19T02:01:45.016Z,12.20
2023-05-19T02:04:05.362Z,12.20
2023-05-19T02:06:27.876Z,12.23
2023-05-19T02:08:37.708Z,12.17
2023-05-19T02:10:48.706Z,12.19
2023-05-19T02:12:57.714Z,12.22
2023-05-19T02:15:07.830Z,12.19
2023-05-19T02:17:15.855Z,12.08
2023-05-19T02:19:28.746Z,12.12
2023-05-19T02:21:34.178Z,11.99
2023-05-19T02:23:39.458Z,11.96
2023-05-19T02:25:44.197Z,11.91
2023-05-19T02:27:49.396Z,11.94
2023-05-19T02:29:54.315Z,11.82
2023-05-19T02:31:59.309Z,11.71
2023-05-19T02:34:04.251Z,11.77
2023-05-19T02:36:14.693Z,11.81
2023-05-19T02:38:19.687Z,11.81
2023-05-19T02:40:25.182Z,11.82
2023-05-19T02:42:30.634Z,11.85
2023-05-19T02:44:35.500Z,11.87
2023-05-19T02:46:40.484Z,11.85
2023-05-19T02:48:45.637Z,11.90
2023-05-19T02:50:50.632Z,11.93
2023-05-19T02:52:58.175Z,11.91
2023-05-19T02:55:03.583Z,11.87
2023-05-19T02:57:08.762Z,11.90
2023-05-19T02:59:13.801Z,11.94
2023-05-19T03:01:18.841Z,12.03
2023-05-19T03:03:23.841Z,12.01
2023-05-19T03:05:28.715Z,11.99
2023-05-19T03:07:33.936Z,11.99
2023-05-19T03:09:42.125Z,11.94
2023-05-19T03:11:47.105Z,11.92
2023-05-19T03:13:52.168Z,11.94
2023-05-19T03:15:58.087Z,11.93
2023-05-19T03:18:03.105Z,11.80
2023-05-19T03:20:11.038Z,11.86
2023-05-19T03:22:15.958Z,11.82
2023-05-19T03:24:21.007Z,11.85
2023-05-19T03:26:29.541Z,11.85
2023-05-19T03:28:35.449Z,11.87
2023-05-19T03:30:40.369Z,11.79
2023-05-19T03:32:57.381Z,11.84
2023-05-19T03:35:02.537Z,11.90
2023-05-19T03:37:08.095Z,12.01
2023-05-19T03:39:15.586Z,12.07
2023-05-19T03:41:21.500Z,12.07
2023-05-19T03:43:29.486Z,12.14
2023-05-19T03:45:38.778Z,12.17
2023-05-19T03:48:02.276Z,12.08
2023-05-19T03:50:34.288Z,12.14
2023-05-19T03:52:50.314Z,12.09
2023-05-19T03:55:05.703Z,12.12
2023-05-19T03:57:11.215Z,12.11
2023-05-19T03:59:19.102Z,12.18
2023-05-19T04:01:24.214Z,12.18
2023-05-19T04:03:29.472Z,12.20
2023-05-19T04:05:34.559Z,12.19
2023-05-19T04:07:39.716Z,12.19
2023-05-19T04:09:45.297Z,12.11
2023-05-19T04:11:50.264Z,12.07
2023-05-19T04:13:56.083Z,12.09
2023-05-19T04:16:03.960Z,12.17
2023-05-19T04:18:09.156Z,12.19
2023-05-19T04:20:15.854Z,12.24
2023-05-19T04:22:20.930Z,12.27
2023-05-19T04:24:26.374Z,12.24
2023-05-19T04:26:34.704Z,12.29
2023-05-19T04:28:42.586Z,12.34
2023-05-19T04:30:47.990Z,12.41
2023-05-19T04:32:58.302Z,12.50
2023-05-19T04:35:03.712Z,12.50
2023-05-19T04:37:14.308Z,12.58
2023-05-19T04:39:19.325Z,12.60
2023-05-19T04:41:24.791Z,12.65
2023-05-19T04:43:29.900Z,12.66
2023-05-19T04:45:37.944Z,12.68
2023-05-19T04:47:44.704Z,12.72
2023-05-19T04:49:55.841Z,12.80
2023-05-19T04:52:01.768Z,12.84
2023-05-19T04:54:08.687Z,12.83
2023-05-19T04:56:15.634Z,12.86
2023-05-19T04:58:22.288Z,12.84
2023-05-19T05:00:27.280Z,12.89
2023-05-19T05:02:43.122Z,12.89
2023-05-19T05:04:48.386Z,12.89
2023-05-19T05:06:58.076Z,12.93
2023-05-19T05:09:04.573Z,12.89
2023-05-19T05:11:11.098Z,12.77
2023-05-19T05:13:16.746Z,12.74
2023-05-19T05:15:28.870Z,12.75
2023-05-19T05:17:37.961Z,12.74
2023-05-19T05:19:44.239Z,12.63
2023-05-19T05:21:52.081Z,12.67
2023-05-19T05:24:01.116Z,12.74
2023-05-19T05:26:19.162Z,12.79
2023-05-19T05:28:26.730Z,12.78
2023-05-19T05:30:32.534Z,12.78
2023-05-19T05:32:37.519Z,12.66
2023-05-19T05:34:48.527Z,12.67
2023-05-19T05:36:56.684Z,12.67
2023-05-19T05:39:05.868Z,12.72
2023-05-19T05:41:11.282Z,12.78
2023-05-19T05:43:16.191Z,12.89
2023-05-19T05:45:26.599Z,12.97
2023-05-19T05:47:33.324Z,13.11
2023-05-19T05:49:40.463Z,13.16
2023-05-19T05:51:57.979Z,13.26
2023-05-19T05:54:15.751Z,13.44
2023-05-19T05:56:24.737Z,13.52
2023-05-19T05:58:33.620Z,13.55
2023-05-19T06:00:39.616Z,13.40
2023-05-19T06:02:50.064Z,13.46
2023-05-19T06:04:56.963Z,13.28
2023-05-19T06:07:02.397Z,13.34
2023-05-19T06:09:14.397Z,13.28
2023-05-19T06:11:26.332Z,13.24
2023-05-19T06:13:34.948Z,13.36
2023-05-19T06:15:42.472Z,13.45
2023-05-19T06:18:04.429Z,13.58
2023-05-19T06:20:13.246Z,13.71
2023-05-19T06:22:18.282Z,13.69
2023-05-19T06:24:25.931Z,13.74
2023-05-19T06:26:31.122Z,13.78
2023-05-19T06:28:35.878Z,13.87
2023-05-19T06:30:41.146Z,14.01
2023-05-19T06:33:17.302Z,13.99
2023-05-19T06:35:22.583Z,14.12
2023-05-19T06:37:27.589Z,13.94
2023-05-19T06:39:39.029Z,13.92
2023-05-19T06:41:44.114Z,14.01
2023-05-19T06:44:04.154Z,14.29
2023-05-19T06:46:13.406Z,14.38
2023-05-19T06:48:18.738Z,14.44
2023-05-19T06:50:23.979Z,14.37
2023-05-19T06:52:28.751Z,14.42
2023-05-19T06:54:38.037Z,14.54
2023-05-19T06:56:43.248Z,14.65
2023-05-19T06:58:49.477Z,14.81
2023-05-19T07:00:54.625Z,14.94
2023-05-19T07:03:01.197Z,15.04
2023-05-19T07:05:06.740Z,15.20
2023-05-19T07:07:12.261Z,15.21
2023-05-19T07:09:17.690Z,15.26
2023-05-19T07:11:26.546Z,15.27
2023-05-19T07:13:33.129Z,15.35
2023-05-19T07:15:38.260Z,15.46
2023-05-19T07:17:44.213Z,15.48
2023-05-19T07:19:52.031Z,15.67
2023-05-19T07:21:59.498Z,15.82
2023-05-19T07:24:04.670Z,15.86
2023-05-19T07:26:09.728Z,15.71
2023-05-19T07:28:17.630Z,15.78
2023-05-19T07:30:22.684Z,15.84
2023-05-19T07:32:28.040Z,15.90
2023-05-19T07:34:33.086Z,15.89
2023-05-19T07:36:38.127Z,15.81
2023-05-19T07:38:43.183Z,15.84
2023-05-19T07:40:48.177Z,15.71
2023-05-19T07:42:53.397Z,15.79
2023-05-19T07:45:01.001Z,15.88
2023-05-19T07:47:07.012Z,16.00
2023-05-19T07:49:11.976Z,16.19
2023-05-19T07:51:19.597Z,16.30
2023-05-19T07:53:24.794Z,16.24
2023-05-19T07:55:29.488Z,16.02
2023-05-19T07:57:34.436Z,16.04
2023-05-19T07:59:41.990Z,16.13
2023-05-19T08:01:49.797Z,16.23
2023-05-19T08:03:54.864Z,16.18
2023-05-19T08:05:59.612Z,16.25
2023-05-19T08:08:04.808Z,16.28
2023-05-19T08:10:10.104Z,16.27
2023-05-19T08:12:15.163Z,16.31
2023-05-19T08:14:22.553Z,16.39
2023-05-19T08:16:27.724Z,16.40
2023-05-19T08:18:37.734Z,16.35
2023-05-19T08:20:42.741Z,16.41
2023-05-19T08:22:47.749Z,16.56
2023-05-19T08:24:52.763Z,16.67
2023-05-19T08:26:57.798Z,16.83
2023-05-19T08:29:02.759Z,16.86
2023-05-19T08:31:07.759Z,16.90
2023-05-19T08:33:15.471Z,16.85
2023-05-19T08:35:23.249Z,16.79
2023-05-19T08:37:28.223Z,16.76
2023-05-19T08:39:34.439Z,16.80
2023-05-19T08:41:39.728Z,16.94
2023-05-19T08:43:45.634Z,16.91
2023-05-19T08:45:50.728Z,17.06
2023-05-19T08:47:56.008Z,17.20
2023-05-19T08:50:07.777Z,17.12
2023-05-19T08:52:23.623Z,17.18
2023-05-19T08:54:33.974Z,17.09
2023-05-19T08:56:40.528Z,17.04
2023-05-19T08:58:49.321Z,17.09
2023-05-19T09:00:56.765Z,16.85
2023-05-19T09:03:17.614Z,16.92
2023-05-19T09:05:23.814Z,16.96
2023-05-19T09:07:34.985Z,17.07
2023-05-19T09:09:43.309Z,17.02
2023-05-19T09:11:49.381Z,16.98
2023-05-19T09:13:57.421Z,16.98
2023-05-19T09:16:03.482Z,17.27
2023-05-19T09:18:13.191Z,17.31
2023-05-19T09:20:20.454Z,17.26
2023-05-19T09:22:26.828Z,17.34
2023-05-19T09:24:35.024Z,17.36
2023-05-19T09:26:41.370Z,17.45
2023-05-19T09:28:48.016Z,17.28
2023-05-19T09:31:05.587Z,17.33
2023-05-19T09:33:10.877Z,17.40
2023-05-19T09:35:17.416Z,17.62
2023-05-19T09:37:26.164Z,17.65
2023-05-19T09:39:32.997Z,17.67
2023-05-19T09:41:40.648Z,17.82
2023-05-19T09:43:45.691Z,17.81
2023-05-19T09:45:51.017Z,17.86
2023-05-19T09:47:56.408Z,17.79
2023-05-19T09:50:01.610Z,17.71
2023-05-19T09:52:06.837Z,17.57
2023-05-19T09:54:12.170Z,17.59
2023-05-19T09:56:17.732Z,17.70
2023-05-19T09:58:26.598Z,17.85
2023-05-19T10:00:34.369Z,17.98
2023-05-19T10:02:40.190Z,18.03
2023-05-19T10:04:45.990Z,17.99
2023-05-19T10:06:53.854Z,17.96
2023-05-19T10:09:02.580Z,18.13
2023-05-19T10:11:08.678Z,18.19
2023-05-19T10:13:15.175Z,18.38
2023-05-19T10:15:23.450Z,18.63
2023-05-19T10:17:45.642Z,18.83
2023-05-19T10:19:56.118Z,18.76
2023-05-19T10:22:03.983Z,18.81
2023-05-19T10:24:10.455Z,18.87
2023-05-19T10:26:17.115Z,18.99
2023-05-19T10:28:25.749Z,19.07
2023-05-19T10:30:37.479Z,19.09
2023-05-19T10:32:44.646Z,19.28
2023-05-19T10:35:19.156Z,19.48
2023-05-19T10:37:34.558Z,19.33
2023-05-19T10:39:39.958Z,19.14
2023-05-19T10:41:53.865Z,19.02
2023-05-19T10:44:08.937Z,18.99
2023-05-19T10:46:16.706Z,18.93
2023-05-19T10:48:24.340Z,18.99
2023-05-19T10:50:29.545Z,18.95
2023-05-19T10:52:34.272Z,18.91
2023-05-19T10:54:46.271Z,18.95
2023-05-19T10:56:52.066Z,18.99
2023-05-19T10:59:00.585Z,19.32
2023-05-19T11:01:06.914Z,19.40
2023-05-19T11:03:24.478Z,19.54
2023-05-19T11:05:32.930Z,19.42
2023-05-19T11:07:38.429Z,19.18
2023-05-19T11:09:43.875Z,19.20
2023-05-19T11:11:50.693Z,19.40
2023-05-19T11:13:57.836Z,19.43
2023-05-19T11:16:10.498Z,19.37
2023-05-19T11:18:18.212Z,19.38
2023-05-19T11:20:27.806Z,19.55
2023-05-19T11:22:39.015Z,19.70
2023-05-19T11:24:50.476Z,19.71
2023-05-19T11:26:57.801Z,19.57
2023-05-19T11:29:04.430Z,19.62
2023-05-19T11:31:10.928Z,19.69
2023-05-19T11:33:19.597Z,19.76
2023-05-19T11:35:27.723Z,19.91
2023-05-19T11:37:38.072Z,20.01
2023-05-19T11:39:44.047Z,20.10
2023-05-19T11:41:49.139Z,20.15
2023-05-19T11:43:53.864Z,20.05
2023-05-19T11:45:59.584Z,19.98
2023-05-19T11:48:05.799Z,20.03
2023-05-19T11:50:13.763Z,19.95
2023-05-19T11:52:25.095Z,20.15
2023-05-19T11:54:36.890Z,20.38
2023-05-19T11:56:43.803Z,20.36
2023-05-19T11:58:48.850Z,20.11
2023-05-19T12:00:56.598Z,20.21
2023-05-19T12:03:01.860Z,20.02
2023-05-19T12:05:07.288Z,19.90
2023-05-19T12:07:17.685Z,19.68
2023-05-19T12:09:25.765Z,19.71
2023-05-19T12:11:33.325Z,19.71
2023-05-19T12:13:38.443Z,19.77
2023-05-19T12:15:43.630Z,19.78
2023-05-19T12:17:48.957Z,19.74
2023-05-19T12:19:57.114Z,19.66
2023-05-19T12:22:04.196Z,19.56
2023-05-19T12:24:10.291Z,19.51
2023-05-19T12:26:20.234Z,19.80
2023-05-19T12:28:25.333Z,19.87
2023-05-19T12:30:31.277Z,19.89
2023-05-19T12:32:38.388Z,19.96
2023-05-19T12:34:43.429Z,20.07
2023-05-19T12:36:48.184Z,20.03
2023-05-19T12:38:57.105Z,20.15
2023-05-19T12:41:02.526Z,20.35
2023-05-19T12:43:10.142Z,20.49
2023-05-19T12:45:16.504Z,20.51
2023-05-19T12:47:23.290Z,20.51
2023-05-19T12:49:28.536Z,20.56
2023-05-19T12:51:33.524Z,20.60
2023-05-19T12:53:39.731Z,20.43
2023-05-19T12:55:46.026Z,20.56
2023-05-19T12:57:54.963Z,20.58
2023-05-19T13:00:08.434Z,20.75
2023-05-19T13:02:13.513Z,20.76
2023-05-19T13:04:18.467Z,20.84
2023-05-19T13:06:23.655Z,20.94
2023-05-19T13:08:28.603Z,20.90
2023-05-19T13:10:36.249Z,20.75
2023-05-19T13:12:41.228Z,20.69
2023-05-19T13:14:46.374Z,20.55
2023-05-19T13:16:54.065Z,20.49
2023-05-19T13:18:59.655Z,20.42
2023-05-19T13:21:05.941Z,20.48
2023-05-19T13:23:13.278Z,20.55
2023-05-19T13:25:18.817Z,20.73
2023-05-19T13:27:24.979Z,20.85
2023-05-19T13:29:30.036Z,20.85
2023-05-19T13:31:34.837Z,20.77
2023-05-19T13:33:45.601Z,20.66
2023-05-19T13:35:50.939Z,20.64
2023-05-19T13:37:56.102Z,20.67
2023-05-19T13:40:01.733Z,20.76
2023-05-19T13:42:07.564Z,20.74
2023-05-19T13:44:12.683Z,20.70
2023-05-19T13:46:17.637Z,20.64
2023-05-19T13:48:23.430Z,20.65
2023-05-19T13:50:32.586Z,20.60
2023-05-19T13:52:37.645Z,20.43
2023-05-19T13:54:42.605Z,20.44
2023-05-19T13:56:48.904Z,20.56
2023-05-19T13:59:00.980Z,20.54
2023-05-19T14:01:06.012Z,20.77
2023-05-19T14:03:10.900Z,20.87
2023-05-19T14:05:16.136Z,20.67
2023-05-19T14:07:23.423Z,20.68
2023-05-19T14:09:29.804Z,20.78
2023-05-19T14:11:35.218Z,20.91
2023-05-19T14:13:43.256Z,20.96
2023-05-19T14:15:49.193Z,21.10
2023-05-19T14:17:56.214Z,21.22
2023-05-19T14:20:01.189Z,21.22
2023-05-19T14:24:13.560Z,21.12
2023-05-19T14:26:19.893Z,21.03
2023-05-19T14:28:24.922Z,21.01
2023-05-19T14:30:29.733Z,21.01
2023-05-19T14:32:34.903Z,21.03
2023-05-19T14:34:40.347Z,21.13
2023-05-19T14:36:45.050Z,21.23
2023-05-19T14:38:50.141Z,21.43
2023-05-19T14:40:57.712Z,21.59
2023-05-19T14:43:02.641Z,21.73
2023-05-19T14:45:07.747Z,21.88
2023-05-19T14:47:12.841Z,21.99
2023-05-19T14:49:17.886Z,21.74
2023-05-19T14:51:23.536Z,21.76
2023-05-19T14:53:28.690Z,21.60
2023-05-19T14:55:33.709Z,21.54
2023-05-19T14:57:41.667Z,21.47
2023-05-19T14:59:46.697Z,21.42
2023-05-19T15:01:51.643Z,21.36
2023-05-19T15:06:01.499Z,21.13
2023-05-19T15:08:06.617Z,21.03
2023-05-19T15:10:12.335Z,21.05
2023-05-19T15:12:20.067Z,21.06
2023-05-19T15:14:28.612Z,20.98
2023-05-19T15:16:35.120Z,20.99
2023-05-19T15:18:40.585Z,21.08
2023-05-19T15:20:46.772Z,21.07
2023-05-19T15:22:51.901Z,21.19
2023-05-19T15:24:56.868Z,21.33
2023-05-19T15:27:01.883Z,21.39
2023-05-19T15:29:06.637Z,21.45
2023-05-19T15:31:14.338Z,21.36
2023-05-19T15:33:19.430Z,21.12
2023-05-19T15:35:24.501Z,20.98
2023-05-19T15:37:29.661Z,20.88
2023-05-19T15:39:35.214Z,20.71
2023-05-19T15:41:40.308Z,20.65
2023-05-19T15:43:46.620Z,20.58
2023-05-19T15:45:55.058Z,20.48
2023-05-19T15:48:02.787Z,20.48
2023-05-19T15:50:08.358Z,20.54
2023-05-19T15:52:13.277Z,20.56
2023-05-19T15:54:18.186Z,20.48
2023-05-19T15:56:23.312Z,20.41
2023-05-19T15:58:28.378Z,20.50
2023-05-19T16:00:33.176Z,20.52
2023-05-19T16:02:38.566Z,20.56
2023-05-19T16:05:00.748Z,20.58
2023-05-19T16:07:08.778Z,20.55
2023-05-19T16:09:13.707Z,20.41
2023-05-19T16:11:20.791Z,20.40
2023-05-19T16:13:26.236Z,20.24
2023-05-19T16:15:31.164Z,20.28
2023-05-19T16:17:38.688Z,20.25
2023-05-19T16:19:43.819Z,20.16
2023-05-19T16:21:48.663Z,20.07
2023-05-19T16:23:56.233Z,19.92
2023-05-19T16:26:01.362Z,19.89
2023-05-19T16:28:06.469Z,19.86
2023-05-19T16:30:11.789Z,19.81
2023-05-19T16:32:16.830Z,19.77
2023-05-19T16:34:21.784Z,19.79
2023-05-19T16:36:26.793Z,19.76
2023-05-19T16:38:31.783Z,19.72
2023-05-19T16:40:42.313Z,19.66
2023-05-19T16:42:47.319Z,19.70
2023-05-19T16:44:52.083Z,19.65
2023-05-19T16:46:57.098Z,19.65
2023-05-19T16:49:02.079Z,19.64
2023-05-19T16:51:07.099Z,19.59
2023-05-19T16:53:12.184Z,19.66
2023-05-19T16:55:20.177Z,19.64
2023-05-19T16:57:27.715Z,19.51
2023-05-19T16:59:32.737Z,19.50
2023-05-19T17:01:37.731Z,19.44
2023-05-19T17:03:42.606Z,19.28
2023-05-19T17:05:47.616Z,19.31
2023-05-19T17:07:52.386Z,19.26
2023-05-19T17:09:57.543Z,19.19
2023-05-19T17:12:02.584Z,19.20
2023-05-19T17:14:10.539Z,19.15
2023-05-19T17:16:15.516Z,19.18
2023-05-19T17:18:20.637Z,19.17
2023-05-19T17:20:25.422Z,19.14
2023-05-19T17:22:30.517Z,18.98
2023-05-19T17:24:36.105Z,18.86
2023-05-19T17:26:41.054Z,18.85
2023-05-19T17:28:46.047Z,18.75
2023-05-19T17:30:53.779Z,18.70
2023-05-19T17:32:59.579Z,18.71
2023-05-19T17:35:06.780Z,18.70
2023-05-19T17:37:11.740Z,18.75
2023-05-19T17:39:16.652Z,18.73
2023-05-19T17:41:22.108Z,18.73
2023-05-19T17:43:27.066Z,18.71
2023-05-19T17:45:32.061Z,18.69
2023-05-19T17:48:07.531Z,18.70
2023-05-19T17:50:13.343Z,18.68
2023-05-19T17:52:19.460Z,18.70
2023-05-19T17:54:26.415Z,18.73
2023-05-19T17:56:36.755Z,18.69
2023-05-19T17:58:46.859Z,18.72
2023-05-19T18:00:52.594Z,18.73
2023-05-19T18:03:00.095Z,18.72
2023-05-19T18:05:09.126Z,18.79
2023-05-19T18:07:16.696Z,18.78
2023-05-19T18:09:22.601Z,18.82
2023-05-19T18:11:28.153Z,18.80
2023-05-19T18:13:33.279Z,18.81
2023-05-19T18:15:38.487Z,18.74
2023-05-19T18:17:43.846Z,18.69
2023-05-19T18:19:49.635Z,18.64
2023-05-19T18:21:57.630Z,18.66
2023-05-19T18:24:07.630Z,18.69
2023-05-19T18:26:13.248Z,18.72
2023-05-19T18:28:18.297Z,18.68
2023-05-19T18:30:23.493Z,18.61
2023-05-19T18:32:28.353Z,18.47
2023-05-19T18:34:33.284Z,18.46
2023-05-19T18:36:38.317Z,18.28
2023-05-19T18:38:47.546Z,18.27
2023-05-19T18:40:52.635Z,18.20
2023-05-19T18:42:57.314Z,18.20
2023-05-19T18:45:02.443Z,18.21
2023-05-19T18:47:07.339Z,18.12
2023-05-19T18:49:12.276Z,18.09
2023-05-19T18:51:18.781Z,18.10
2023-05-19T18:53:24.279Z,18.13
2023-05-19T18:55:31.788Z,18.02
2023-05-19T18:57:37.010Z,17.93
2023-05-19T18:59:41.648Z,17.79
2023-05-19T19:01:46.684Z,17.74
2023-05-19T19:03:52.145Z,17.66
2023-05-19T19:05:57.856Z,17.67
2023-05-19T19:08:05.674Z,17.62
2023-05-19T19:10:12.017Z,17.60
2023-05-19T19:12:20.423Z,17.48
2023-05-19T19:14:25.826Z,17.50
2023-05-19T19:16:30.776Z,17.57
2023-05-19T19:18:36.845Z,17.58
2023-05-19T19:20:41.814Z,17.57
2023-05-19T19:22:46.775Z,17.56
2023-05-19T19:24:51.986Z,17.55
2023-05-19T19:26:56.766Z,17.50
2023-05-19T19:29:04.515Z,17.51
2023-05-19T19:31:09.753Z,17.53
2023-05-19T19:33:14.810Z,17.45
2023-05-19T19:35:19.928Z,17.42
2023-05-19T19:37:24.852Z,17.46
2023-05-19T19:39:29.838Z,17.46
2023-05-19T19:41:34.979Z,17.40
2023-05-19T19:43:45.694Z,17.29
2023-05-19T19:46:01.771Z,17.18
2023-05-19T19:48:07.551Z,17.11
2023-05-19T19:50:14.564Z,17.09
2023-05-19T19:52:20.139Z,16.97
2023-05-19T19:54:25.253Z,16.98
2023-05-19T19:56:30.074Z,16.94
2023-05-19T19:58:35.119Z,16.94
2023-05-19T20:00:40.570Z,16.88
2023-05-19T20:03:03.445Z,16.85
2023-05-19T20:05:10.613Z,16.79
2023-05-19T20:07:19.400Z,16.68
2023-05-19T20:09:24.530Z,16.62
2023-05-19T20:11:29.629Z,16.59
2023-05-19T20:13:34.355Z,16.56
2023-05-19T20:15:39.552Z,16.49
2023-05-19T20:17:47.405Z,16.48
2023-05-19T20:19:52.372Z,16.48
2023-05-19T20:21:57.388Z,16.45
2023-05-19T20:24:02.501Z,16.45
2023-05-19T20:26:12.417Z,16.43
2023-05-19T20:28:18.296Z,16.44
2023-05-19T20:30:23.452Z,16.48
2023-05-19T20:32:28.254Z,16.46
2023-05-19T20:34:36.012Z,16.50
2023-05-19T20:36:41.195Z,16.50
2023-05-19T20:38:48.053Z,16.41
2023-05-19T20:40:53.288Z,16.33
2023-05-19T20:42:58.045Z,16.24
2023-05-19T20:45:03.371Z,16.18
2023-05-19T20:47:09.350Z,16.16
2023-05-19T20:49:14.280Z,16.14
2023-05-19T20:51:23.848Z,16.07
2023-05-19T20:53:29.072Z,16.09
2023-05-19T20:55:36.251Z,16.10
2023-05-19T20:57:41.366Z,16.10
2023-05-19T20:59:46.672Z,16.08
2023-05-19T21:01:51.774Z,16.10
2023-05-19T21:03:56.733Z,16.08
2023-05-19T21:06:01.711Z,16.08
2023-05-19T21:08:13.008Z,16.07
2023-05-19T21:10:18.193Z,16.01
2023-05-19T21:12:25.320Z,15.96
2023-05-19T21:14:30.535Z,15.93
2023-05-19T21:16:38.985Z,15.94
2023-05-19T21:18:44.156Z,15.90
2023-05-19T21:20:48.860Z,15.81
2023-05-19T21:22:54.012Z,15.78
2023-05-19T21:25:01.539Z,15.70
2023-05-19T21:27:06.685Z,15.68
2023-05-19T21:29:11.901Z,15.65
2023-05-19T21:31:16.924Z,15.60
2023-05-19T21:33:24.756Z,15.59
2023-05-19T21:35:29.721Z,15.61
2023-05-19T21:37:34.887Z,15.59
2023-05-19T21:39:40.259Z,15.63
2023-05-19T21:41:47.820Z,15.65
2023-05-19T21:43:53.047Z,15.66
2023-05-19T21:45:57.751Z,15.61
2023-05-19T21:48:02.873Z,15.54
2023-05-19T21:50:08.222Z,15.50
2023-05-19T21:52:16.369Z,15.51
2023-05-19T21:54:21.527Z,15.50
2023-05-19T21:56:26.773Z,15.47
2023-05-19T21:58:34.329Z,15.47
2023-05-19T22:00:39.558Z,15.40
2023-05-19T22:02:44.688Z,15.38
2023-05-19T22:04:49.765Z,15.39
2023-05-19T22:06:54.772Z,15.44
2023-05-19T22:09:01.263Z,15.47
2023-05-19T22:11:06.918Z,15.50
2023-05-19T22:13:11.884Z,15.47
2023-05-19T22:15:19.446Z,15.55
2023-05-19T22:17:24.347Z,15.66
2023-05-19T22:19:29.515Z,15.77
2023-05-19T22:21:35.000Z,15.82
2023-05-19T22:23:40.198Z,15.85
2023-05-19T22:25:45.226Z,15.82
2023-05-19T22:27:50.167Z,15.80
2023-05-19T22:29:55.104Z,15.73
2023-05-19T22:32:02.700Z,15.70
2023-05-19T22:34:07.720Z,15.66
2023-05-19T22:36:13.656Z,15.67
2023-05-19T22:38:18.705Z,15.75
2023-05-19T22:40:23.652Z,15.78
2023-05-19T22:42:28.613Z,15.81
2023-05-19T22:44:33.566Z,15.86
2023-05-19T22:46:38.614Z,15.81
2023-05-19T22:48:46.127Z,15.82
2023-05-19T22:50:51.126Z,15.69
2023-05-19T22:52:56.161Z,15.74
2023-05-19T22:55:01.099Z,15.74
2023-05-19T22:57:06.697Z,15.83
2023-05-19T22:59:11.760Z,15.89
2023-05-19T23:01:17.316Z,15.93
2023-05-19T23:03:22.383Z,15.94
2023-05-19T23:05:29.963Z,16.00
2023-05-19T23:07:34.889Z,15.99
2023-05-19T23:09:39.818Z,15.95
2023-05-19T23:11:45.034Z,15.91
2023-05-19T23:13:49.945Z,15.91
2023-05-19T23:15:54.913Z,15.91
2023-05-19T23:18:01.486Z,15.96
2023-05-19T23:20:06.868Z,16.00
2023-05-19T23:22:14.955Z,16.00
2023-05-19T23:24:19.895Z,16.01
2023-05-19T23:26:24.813Z,16.05
2023-05-19T23:28:32.069Z,16.01
2023-05-19T23:30:39.856Z,16.01
2023-05-19T23:32:44.951Z,16.01
2023-05-19T23:34:52.424Z,15.98
2023-05-19T23:36:57.451Z,15.88
2023-05-19T23:39:05.812Z,15.93
2023-05-19T23:41:10.768Z,15.97
2023-05-19T23:43:16.097Z,16.01
2023-05-19T23:45:20.977Z,16.00
2023-05-19T23:47:26.151Z,15.98
2023-05-19T23:49:30.830Z,16.00
2023-05-19T23:51:35.865Z,15.99
2023-05-19T23:53:40.944Z,15.92
2023-05-19T23:55:48.865Z,15.96
2023-05-19T23:57:53.825Z,15.95
2023-05-19T23:59:59.071Z,15.95
